createdAt,value
2018-06-23T00:00:31.716Z,11.63
2018-06-23T00:03:01.061Z,11.51
2018-06-23T00:05:30.397Z,11.60
2018-06-23T00:07:59.721Z,11.46
2018-06-23T00:10:29.055Z,11.58
2018-06-23T00:12:58.464Z,11.62
2018-06-23T00:15:27.816Z,11.62
2018-06-23T00:17:57.186Z,11.62
2018-06-23T00:20:26.500Z,11.61
2018-06-23T00:22:55.845Z,11.57
2018-06-23T00:25:30.518Z,11.62
2018-06-23T00:27:59.835Z,11.68
2018-06-23T00:30:29.203Z,11.60
2018-06-23T00:32:58.576Z,11.65
2018-06-23T00:35:27.896Z,11.73
2018-06-23T00:37:57.280Z,11.64
2018-06-23T00:40:26.644Z,11.64
2018-06-23T00:42:56.133Z,11.70
2018-06-23T00:45:25.453Z,11.82
2018-06-23T00:47:54.832Z,11.87
2018-06-23T00:50:24.160Z,12.01
2018-06-23T00:52:53.504Z,12.09
2018-06-23T00:55:22.851Z,12.15
2018-06-23T00:57:52.173Z,12.22
2018-06-23T01:00:21.540Z,12.19
2018-06-23T01:02:50.895Z,12.25
2018-06-23T01:05:21.112Z,12.07
2018-06-23T01:07:50.480Z,12.22
2018-06-23T01:10:19.812Z,12.42
2018-06-23T01:12:49.139Z,12.44
2018-06-23T01:15:18.512Z,12.49
2018-06-23T01:17:47.844Z,12.45
2018-06-23T01:20:17.159Z,12.31
2018-06-23T01:22:46.539Z,12.31
2018-06-23T01:25:15.832Z,12.28
2018-06-23T01:27:45.191Z,12.36
2018-06-23T01:30:14.521Z,12.29
2018-06-23T01:32:43.837Z,12.23
2018-06-23T01:35:13.204Z,12.31
2018-06-23T01:37:42.556Z,12.23
2018-06-23T01:40:11.894Z,12.19
2018-06-23T01:42:41.217Z,12.19
2018-06-23T01:45:10.552Z,12.07
2018-06-23T01:47:40.011Z,12.12
2018-06-23T01:50:09.303Z,12.31
2018-06-23T01:52:38.626Z,12.19
2018-06-23T01:55:07.966Z,12.16
2018-06-23T01:57:37.300Z,12.06
2018-06-23T02:00:06.625Z,12.06
2018-06-23T02:02:35.961Z,12.01
2018-06-23T02:05:05.373Z,12.07
2018-06-23T02:07:34.748Z,12.17
2018-06-23T02:10:04.137Z,12.06
2018-06-23T02:12:33.452Z,11.99
2018-06-23T02:15:08.048Z,12.00
2018-06-23T02:17:42.978Z,12.01
2018-06-23T02:20:17.620Z,12.12
2018-06-23T02:22:52.108Z,12.26
2018-06-23T02:26:29.536Z,12.27
2018-06-23T02:29:03.995Z,12.12
2018-06-23T02:31:38.669Z,12.14
2018-06-23T02:34:13.127Z,12.07
2018-06-23T02:36:42.606Z,12.10
2018-06-23T02:39:11.949Z,12.09
2018-06-23T02:41:41.301Z,12.03
2018-06-23T02:44:10.637Z,12.21
2018-06-23T02:46:39.948Z,12.21
2018-06-23T02:49:09.281Z,12.17
2018-06-23T02:51:38.608Z,12.11
2018-06-23T02:54:07.942Z,11.89
2018-06-23T02:56:37.276Z,11.84
2018-06-23T02:59:06.639Z,11.70
2018-06-23T03:01:35.948Z,11.80
2018-06-23T03:04:05.405Z,11.91
2018-06-23T03:06:34.779Z,11.75
2018-06-23T03:09:04.632Z,11.69
2018-06-23T03:11:33.963Z,11.80
2018-06-23T03:14:03.309Z,11.53
2018-06-23T03:16:32.648Z,11.57
2018-06-23T03:19:01.997Z,11.75
2018-06-23T03:21:31.332Z,11.64
2018-06-23T03:24:00.848Z,11.78
2018-06-23T03:26:30.244Z,11.79
2018-06-23T03:28:59.565Z,11.43
2018-06-23T03:31:28.908Z,11.43
2018-06-23T03:33:58.257Z,11.40
2018-06-23T03:36:27.571Z,11.38
2018-06-23T03:38:56.973Z,11.26
2018-06-23T03:41:26.316Z,11.25
2018-06-23T03:43:55.659Z,11.27
2018-06-23T03:46:24.981Z,11.46
2018-06-23T03:48:54.543Z,11.35
2018-06-23T03:51:23.853Z,11.52
2018-06-23T03:53:53.176Z,11.43
2018-06-23T03:56:23.068Z,11.44
2018-06-23T03:58:52.805Z,11.75
2018-06-23T04:01:22.176Z,11.84
2018-06-23T04:03:51.523Z,11.93
2018-06-23T04:06:20.855Z,12.03
2018-06-23T04:08:50.224Z,12.07
2018-06-23T04:11:19.560Z,12.05
2018-06-23T04:13:48.891Z,12.32
2018-06-23T04:16:18.246Z,12.48
2018-06-23T04:18:52.012Z,12.23
2018-06-23T04:21:21.496Z,12.11
2018-06-23T04:23:50.817Z,12.32
2018-06-23T04:26:20.266Z,11.93
2018-06-23T04:28:49.623Z,11.94
2018-06-23T04:31:19.040Z,11.74
2018-06-23T04:33:48.355Z,11.74
2018-06-23T04:36:17.695Z,11.78
2018-06-23T04:38:47.016Z,11.80
2018-06-23T04:41:16.384Z,11.99
2018-06-23T04:43:45.736Z,12.10
2018-06-23T04:46:15.075Z,12.28
2018-06-23T04:48:44.471Z,12.45
2018-06-23T04:51:13.803Z,12.54
2018-06-23T04:53:46.645Z,12.65
2018-06-23T04:56:16.754Z,12.51
2018-06-23T04:58:46.085Z,12.19
2018-06-23T05:01:15.390Z,12.15
2018-06-23T05:03:44.956Z,12.37
2018-06-23T05:06:14.271Z,12.38
2018-06-23T05:08:43.607Z,12.43
2018-06-23T05:11:12.961Z,12.04
2018-06-23T05:13:42.292Z,11.96
2018-06-23T05:16:11.604Z,12.11
2018-06-23T05:18:40.916Z,12.58
2018-06-23T05:21:10.309Z,12.61
2018-06-23T05:23:39.656Z,12.26
2018-06-23T05:26:09.021Z,12.18
2018-06-23T05:28:38.343Z,12.48
2018-06-23T05:31:07.711Z,12.75
2018-06-23T05:33:37.045Z,12.74
2018-06-23T05:36:06.403Z,12.93
2018-06-23T05:38:35.724Z,12.88
2018-06-23T05:41:05.045Z,12.76
2018-06-23T05:43:34.431Z,12.81
2018-06-23T05:46:03.964Z,12.65
2018-06-23T05:48:33.288Z,12.74
2018-06-23T05:51:02.630Z,12.98
2018-06-23T05:53:31.943Z,13.07
2018-06-23T05:56:01.272Z,13.28
2018-06-23T05:58:30.684Z,13.17
2018-06-23T06:01:00.016Z,13.42
2018-06-23T06:03:29.345Z,13.18
2018-06-23T06:05:58.669Z,12.87
2018-06-23T06:08:27.988Z,12.92
2018-06-23T06:10:57.392Z,13.20
2018-06-23T06:13:26.708Z,13.51
2018-06-23T06:15:56.072Z,13.67
2018-06-23T06:18:25.387Z,14.00
2018-06-23T06:20:54.740Z,13.96
2018-06-23T06:23:24.069Z,13.49
2018-06-23T06:25:53.408Z,13.40
2018-06-23T06:28:22.720Z,13.12
2018-06-23T06:30:52.079Z,13.03
2018-06-23T06:33:21.427Z,12.99
2018-06-23T06:35:50.757Z,13.49
2018-06-23T06:38:20.138Z,13.93
2018-06-23T06:40:52.945Z,14.12
2018-06-23T06:43:22.312Z,13.63
2018-06-23T06:45:51.633Z,13.64
2018-06-23T06:48:21.041Z,13.49
2018-06-23T06:50:50.418Z,13.82
2018-06-23T06:53:19.759Z,13.25
2018-06-23T06:55:49.092Z,13.23
2018-06-23T06:58:18.860Z,13.18
2018-06-23T07:00:48.186Z,13.32
2018-06-23T07:03:17.516Z,13.26
2018-06-23T07:05:46.874Z,13.51
2018-06-23T07:08:16.419Z,13.73
2018-06-23T07:10:45.743Z,13.71
2018-06-23T07:13:15.069Z,13.47
2018-06-23T07:15:44.384Z,13.43
2018-06-23T07:18:13.749Z,13.48
2018-06-23T07:20:43.153Z,13.45
2018-06-23T07:23:12.525Z,13.43
2018-06-23T07:25:41.855Z,13.57
2018-06-23T07:28:11.165Z,13.60
2018-06-23T07:30:40.565Z,13.69
2018-06-23T07:33:09.849Z,13.41
2018-06-23T07:35:39.241Z,13.49
2018-06-23T07:38:08.636Z,13.91
2018-06-23T07:40:38.038Z,13.95
2018-06-23T07:43:07.384Z,13.93
2018-06-23T07:45:36.740Z,14.04
2018-06-23T07:48:06.136Z,14.37
2018-06-23T07:50:35.507Z,14.09
2018-06-23T07:53:04.949Z,14.69
2018-06-23T07:55:34.290Z,14.38
2018-06-23T07:58:04.075Z,14.26
2018-06-23T08:00:33.581Z,13.93
2018-06-23T08:03:02.945Z,13.63
2018-06-23T08:05:32.315Z,13.57
2018-06-23T08:08:01.686Z,13.91
2018-06-23T08:10:30.977Z,13.87
2018-06-23T08:13:00.304Z,14.18
2018-06-23T08:15:29.648Z,14.42
2018-06-23T08:17:58.997Z,13.98
2018-06-23T08:20:28.311Z,13.97
2018-06-23T08:22:57.665Z,14.08
2018-06-23T08:25:27.033Z,13.53
2018-06-23T08:27:56.485Z,13.59
2018-06-23T08:30:25.891Z,13.42
2018-06-23T08:32:55.224Z,13.47
2018-06-23T08:35:24.551Z,13.74
2018-06-23T08:37:53.976Z,13.36
2018-06-23T08:40:23.241Z,13.51
2018-06-23T08:42:52.610Z,13.61
2018-06-23T08:45:21.950Z,13.45
2018-06-23T08:47:51.289Z,13.59
2018-06-23T08:50:20.744Z,13.72
2018-06-23T08:52:50.117Z,13.87
2018-06-23T08:55:19.432Z,13.76
2018-06-23T08:57:48.820Z,13.89
2018-06-23T09:00:18.152Z,14.09
2018-06-23T09:02:47.577Z,13.81
2018-06-23T09:05:16.894Z,13.69
2018-06-23T09:07:46.197Z,13.60
2018-06-23T09:10:15.267Z,13.72
2018-06-23T09:12:44.578Z,13.83
2018-06-23T09:15:14.751Z,13.72
2018-06-23T09:17:44.361Z,13.97
2018-06-23T09:20:13.695Z,14.24
2018-06-23T09:22:43.079Z,13.88
2018-06-23T09:25:12.428Z,13.75
2018-06-23T09:27:41.755Z,14.17
2018-06-23T09:30:11.254Z,14.19
2018-06-23T09:32:40.612Z,14.63
2018-06-23T09:35:09.923Z,14.85
2018-06-23T09:37:39.249Z,14.89
2018-06-23T09:40:08.584Z,14.46
2018-06-23T09:42:37.911Z,14.38
2018-06-23T09:45:07.259Z,14.61
2018-06-23T09:47:36.564Z,14.68
2018-06-23T09:50:06.152Z,14.32
2018-06-23T09:52:35.483Z,14.29
2018-06-23T09:55:04.819Z,13.74
2018-06-23T09:57:34.133Z,13.84
2018-06-23T10:00:03.539Z,13.80
2018-06-23T10:02:32.875Z,13.72
2018-06-23T10:05:02.220Z,13.89
2018-06-23T10:07:31.555Z,14.18
2018-06-23T10:10:00.930Z,14.64
2018-06-23T10:12:30.276Z,14.46
2018-06-23T10:14:59.600Z,14.80
2018-06-23T10:17:28.923Z,14.89
2018-06-23T10:19:58.253Z,15.27
2018-06-23T10:22:27.572Z,15.63
2018-06-23T10:24:56.936Z,15.65
2018-06-23T10:27:26.320Z,16.12
2018-06-23T10:29:55.656Z,16.06
2018-06-23T10:32:24.995Z,16.52
2018-06-23T10:34:54.389Z,16.34
2018-06-23T10:37:23.724Z,16.26
2018-06-23T10:39:53.092Z,16.06
2018-06-23T10:42:22.422Z,16.15
2018-06-23T10:44:51.796Z,16.37
2018-06-23T10:47:21.145Z,16.63
2018-06-23T10:49:50.844Z,17.06
2018-06-23T10:52:20.179Z,17.49
2018-06-23T10:54:49.524Z,17.65
2018-06-23T10:57:18.900Z,16.76
2018-06-23T10:59:48.236Z,16.15
2018-06-23T11:02:17.720Z,16.25
2018-06-23T11:04:47.180Z,16.05
2018-06-23T11:07:16.591Z,16.48
2018-06-23T11:09:45.896Z,16.96
2018-06-23T11:12:15.224Z,17.07
2018-06-23T11:14:44.640Z,17.19
2018-06-23T11:17:13.980Z,17.67
2018-06-23T11:19:43.299Z,17.72
2018-06-23T11:22:12.690Z,17.71
2018-06-23T11:24:42.005Z,16.84
2018-06-23T11:27:11.340Z,16.93
2018-06-23T11:29:40.696Z,17.13
2018-06-23T11:32:10.026Z,17.45
2018-06-23T11:34:39.331Z,17.58
2018-06-23T11:37:08.757Z,17.51
2018-06-23T11:39:38.107Z,18.14
2018-06-23T11:42:07.523Z,18.06
2018-06-23T11:44:36.872Z,18.04
2018-06-23T11:47:06.509Z,17.50
2018-06-23T11:49:35.815Z,17.67
2018-06-23T11:52:05.247Z,17.95
2018-06-23T11:54:34.515Z,18.28
2018-06-23T11:57:07.640Z,18.21
2018-06-23T11:59:36.968Z,18.17
2018-06-23T12:02:06.416Z,18.65
2018-06-23T12:04:35.782Z,18.36
2018-06-23T12:07:05.132Z,18.62
2018-06-23T12:09:34.520Z,18.35
2018-06-23T12:12:03.891Z,18.23
2018-06-23T12:14:33.200Z,18.31
2018-06-23T12:17:02.540Z,18.03
2018-06-23T12:19:31.876Z,17.71
2018-06-23T12:22:01.208Z,18.41
2018-06-23T12:24:30.528Z,19.05
2018-06-23T12:26:59.850Z,19.95
2018-06-23T12:29:29.194Z,19.99
2018-06-23T12:31:58.495Z,19.60
2018-06-23T12:34:27.836Z,19.60
2018-06-23T12:36:57.165Z,19.28
2018-06-23T12:39:26.472Z,18.86
2018-06-23T12:41:55.828Z,19.06
2018-06-23T12:44:25.163Z,18.83
2018-06-23T12:46:54.472Z,19.13
2018-06-23T12:49:23.821Z,19.13
2018-06-23T12:51:53.135Z,18.46
2018-06-23T12:54:22.446Z,18.37
2018-06-23T12:56:51.789Z,18.51
2018-06-23T12:59:21.100Z,18.41
2018-06-23T13:01:50.420Z,18.97
2018-06-23T13:04:19.846Z,19.04
2018-06-23T13:06:49.315Z,18.98
2018-06-23T13:09:18.636Z,19.62
2018-06-23T13:11:48.032Z,20.01
2018-06-23T13:14:17.355Z,20.18
2018-06-23T13:16:46.717Z,20.73
2018-06-23T13:19:16.051Z,20.65
2018-06-23T13:21:45.372Z,20.07
2018-06-23T13:24:14.684Z,19.96
2018-06-23T13:26:43.850Z,19.90
2018-06-23T13:29:14.048Z,19.76
2018-06-23T13:31:43.392Z,19.69
2018-06-23T13:34:12.752Z,19.05
2018-06-23T13:36:42.175Z,18.98
2018-06-23T13:39:11.556Z,18.92
2018-06-23T13:41:40.893Z,18.92
2018-06-23T13:44:10.253Z,19.15
2018-06-23T13:46:39.612Z,19.04
2018-06-23T13:49:08.944Z,18.45
2018-06-23T13:51:38.280Z,18.20
2018-06-23T13:54:07.608Z,18.61
2018-06-23T13:56:36.992Z,18.61
2018-06-23T13:59:06.320Z,18.61
2018-06-23T14:01:35.683Z,18.98
2018-06-23T14:04:05.024Z,19.16
2018-06-23T14:06:34.346Z,20.20
2018-06-23T14:09:03.957Z,20.84
2018-06-23T14:11:33.296Z,21.47
2018-06-23T14:14:02.631Z,20.58
2018-06-23T14:16:31.972Z,20.23
2018-06-23T14:19:01.288Z,20.25
2018-06-23T14:21:30.619Z,20.00
2018-06-23T14:24:00.065Z,21.09
2018-06-23T14:26:29.474Z,20.72
2018-06-23T14:28:59.109Z,21.77
2018-06-23T14:31:28.594Z,22.23
2018-06-23T14:33:57.796Z,21.72
2018-06-23T14:36:27.152Z,21.31
2018-06-23T14:38:56.597Z,20.67
2018-06-23T14:41:25.912Z,20.48
2018-06-23T14:43:55.256Z,20.31
2018-06-23T14:46:24.596Z,19.89
2018-06-23T14:48:53.945Z,20.60
2018-06-23T14:51:23.300Z,19.69
2018-06-23T14:53:52.707Z,19.97
2018-06-23T14:56:22.018Z,19.69
2018-06-23T14:58:51.383Z,19.69
2018-06-23T15:01:20.708Z,19.43
2018-06-23T15:03:50.060Z,19.02
2018-06-23T15:06:19.433Z,19.21
2018-06-23T15:09:05.876Z,19.47
2018-06-23T15:11:52.172Z,19.43
2018-06-23T15:14:21.481Z,19.43
2018-06-23T15:16:50.902Z,19.51
2018-06-23T15:19:20.276Z,19.30
2018-06-23T15:21:49.796Z,19.43
2018-06-23T15:24:19.134Z,19.02
2018-06-23T15:26:48.537Z,19.17
2018-06-23T15:29:17.899Z,20.18
2018-06-23T15:31:47.248Z,21.74
2018-06-23T15:34:16.576Z,23.00
2018-06-23T15:36:45.909Z,24.40
2018-06-23T15:39:15.321Z,25.22
2018-06-23T15:41:49.860Z,24.94
2018-06-23T15:44:19.265Z,25.58
2018-06-23T15:46:48.709Z,26.35
2018-06-23T15:49:18.057Z,25.14
2018-06-23T15:51:47.433Z,24.70
2018-06-23T15:54:16.976Z,25.00
2018-06-23T15:56:46.427Z,24.05
2018-06-23T15:59:15.778Z,23.57
2018-06-23T16:01:45.104Z,23.06
2018-06-23T16:04:14.481Z,24.20
2018-06-23T16:06:43.945Z,23.90
2018-06-23T16:09:14.008Z,25.94
2018-06-23T16:11:43.560Z,25.03
2018-06-23T16:14:12.928Z,23.95
2018-06-23T16:16:42.278Z,25.34
2018-06-23T16:19:11.604Z,24.57
2018-06-23T16:21:40.949Z,24.21
2018-06-23T16:24:10.312Z,23.49
2018-06-23T16:26:39.642Z,22.55
2018-06-23T16:29:08.995Z,22.73
2018-06-23T16:31:38.331Z,22.13
2018-06-23T16:34:07.703Z,22.47
2018-06-23T16:36:37.044Z,22.82
2018-06-23T16:39:09.519Z,22.64
2018-06-23T16:41:38.876Z,23.65
2018-06-23T16:44:08.510Z,25.51
2018-06-23T16:46:38.241Z,25.88
2018-06-23T16:49:07.563Z,25.14
2018-06-23T16:51:36.888Z,25.38
2018-06-23T16:54:06.240Z,25.72
2018-06-23T16:56:35.591Z,24.73
2018-06-23T16:59:04.896Z,26.11
2018-06-23T17:01:34.597Z,26.70
2018-06-23T17:04:03.953Z,26.66
2018-06-23T17:06:33.243Z,26.62
2018-06-23T17:09:02.644Z,27.24
2018-06-23T17:11:32.059Z,27.13
2018-06-23T17:14:01.400Z,28.67
2018-06-23T17:16:30.776Z,29.09
2018-06-23T17:19:00.117Z,28.80
2018-06-23T17:21:29.472Z,27.43
2018-06-23T17:23:58.890Z,26.53
2018-06-23T17:26:28.236Z,27.52
2018-06-23T17:28:57.561Z,26.33
2018-06-23T17:31:26.917Z,24.99
2018-06-23T17:33:56.269Z,23.89
2018-06-23T17:36:25.621Z,22.79
2018-06-23T17:38:54.971Z,22.71
2018-06-23T17:41:24.332Z,21.15
2018-06-23T17:43:53.420Z,21.23
2018-06-23T17:46:22.759Z,21.47
2018-06-23T17:48:52.101Z,21.29
2018-06-23T17:51:21.447Z,21.55
2018-06-23T17:53:50.796Z,21.13
2018-06-23T17:56:20.148Z,19.99
2018-06-23T17:58:49.492Z,20.06
2018-06-23T18:01:18.889Z,19.38
2018-06-23T18:03:48.256Z,19.16
2018-06-23T18:06:17.618Z,18.62
2018-06-23T18:08:46.979Z,18.48
2018-06-23T18:11:16.511Z,18.30
2018-06-23T18:13:45.813Z,18.27
2018-06-23T18:16:15.161Z,18.71
2018-06-23T18:18:44.520Z,18.67
2018-06-23T18:21:14.002Z,18.98
2018-06-23T18:23:43.316Z,19.09
2018-06-23T18:26:12.679Z,19.11
2018-06-23T18:28:42.059Z,19.31
2018-06-23T18:31:11.386Z,19.54
2018-06-23T18:33:40.738Z,19.67
2018-06-23T18:36:10.033Z,19.52
2018-06-23T18:38:39.360Z,19.37
2018-06-23T18:41:08.674Z,19.35
2018-06-23T18:43:38.013Z,19.08
2018-06-23T18:46:07.332Z,18.93
2018-06-23T18:48:36.640Z,18.87
2018-06-23T18:51:06.057Z,18.90
2018-06-23T18:53:35.385Z,18.67
2018-06-23T18:56:05.056Z,18.27
2018-06-23T18:58:34.400Z,18.52
2018-06-23T19:01:03.776Z,18.53
2018-06-23T19:03:33.152Z,18.65
2018-06-23T19:06:02.580Z,18.68
2018-06-23T19:08:31.999Z,18.61
2018-06-23T19:11:01.399Z,18.44
2018-06-23T19:13:30.744Z,18.38
2018-06-23T19:16:00.086Z,18.26
2018-06-23T19:18:29.412Z,17.96
2018-06-23T19:20:58.776Z,17.99
2018-06-23T19:23:28.134Z,17.86
2018-06-23T19:25:57.468Z,17.43
2018-06-23T19:28:26.813Z,17.47
2018-06-23T19:30:56.164Z,17.34
2018-06-23T19:33:25.512Z,17.50
2018-06-23T19:35:54.856Z,17.25
2018-06-23T19:38:24.198Z,17.24
2018-06-23T19:40:53.554Z,17.09
2018-06-23T19:43:22.868Z,17.07
2018-06-23T19:45:52.228Z,16.97
2018-06-23T19:48:21.567Z,16.92
2018-06-23T19:50:50.883Z,16.84
2018-06-23T19:53:20.200Z,16.85
2018-06-23T19:55:49.572Z,16.92
2018-06-23T19:58:18.883Z,16.90
2018-06-23T20:00:48.232Z,16.91
2018-06-23T20:03:17.608Z,16.95
2018-06-23T20:05:46.949Z,16.85
2018-06-23T20:08:16.273Z,16.85
2018-06-23T20:10:45.992Z,16.93
2018-06-23T20:13:15.314Z,16.84
2018-06-23T20:15:44.639Z,16.77
2018-06-23T20:18:14.012Z,16.74
2018-06-23T20:20:43.360Z,16.80
2018-06-23T20:23:12.699Z,16.84
2018-06-23T20:25:42.040Z,16.69
2018-06-23T20:28:11.379Z,16.31
2018-06-23T20:30:40.752Z,16.37
2018-06-23T20:33:10.105Z,16.35
2018-06-23T20:35:39.488Z,16.32
2018-06-23T20:38:08.824Z,16.35
2018-06-23T20:40:38.183Z,16.22
2018-06-23T20:43:07.560Z,16.11
2018-06-23T20:45:36.925Z,16.00
2018-06-23T20:48:06.275Z,16.06
2018-06-23T20:50:35.591Z,16.16
2018-06-23T20:53:04.979Z,16.05
2018-06-23T20:55:34.316Z,16.01
2018-06-23T20:58:03.640Z,15.95
2018-06-23T21:00:32.981Z,15.84
2018-06-23T21:03:02.314Z,15.99
2018-06-23T21:05:31.640Z,16.05
2018-06-23T21:08:00.979Z,16.06
2018-06-23T21:10:45.210Z,15.94
2018-06-23T21:13:14.551Z,15.80
2018-06-23T21:15:43.860Z,15.75
2018-06-23T21:18:13.204Z,15.73
2018-06-23T21:20:42.543Z,15.57
2018-06-23T21:23:11.858Z,15.40
2018-06-23T21:25:41.208Z,15.46
2018-06-23T21:28:10.712Z,15.37
2018-06-23T21:30:39.921Z,15.41
2018-06-23T21:33:09.326Z,15.38
2018-06-23T21:35:38.581Z,15.16
2018-06-23T21:38:07.920Z,15.02
2018-06-23T21:40:37.261Z,15.00
2018-06-23T21:43:06.714Z,14.96
2018-06-23T21:45:36.003Z,14.86
2018-06-23T21:48:06.557Z,14.74
2018-06-23T21:50:35.954Z,14.62
2018-06-23T21:56:25.960Z,14.47
2018-06-23T21:58:55.311Z,14.28
2018-06-23T22:01:24.633Z,14.24
2018-06-23T22:03:53.981Z,14.10
2018-06-23T22:06:23.337Z,14.02
2018-06-23T22:08:52.665Z,14.10
2018-06-23T22:11:22.210Z,13.92
2018-06-23T22:13:51.546Z,13.88
2018-06-23T22:16:20.852Z,13.93
2018-06-23T22:18:50.233Z,13.77
2018-06-23T22:21:19.604Z,13.69
2018-06-23T22:23:48.943Z,13.68
2018-06-23T22:26:18.308Z,13.75
2018-06-23T22:28:47.619Z,13.68
2018-06-23T22:31:16.955Z,13.63
2018-06-23T22:33:46.328Z,13.53
2018-06-23T22:36:15.644Z,13.59
2018-06-23T22:38:45.041Z,13.62
2018-06-23T22:41:14.384Z,13.60
2018-06-23T22:43:43.708Z,13.46
2018-06-23T22:46:13.100Z,13.43
2018-06-23T22:48:42.455Z,13.46
2018-06-23T22:51:11.759Z,13.44
2018-06-23T22:53:41.089Z,13.44
2018-06-23T22:56:10.447Z,13.42
2018-06-23T22:58:39.773Z,13.27
2018-06-23T23:01:09.113Z,13.14
2018-06-23T23:03:38.419Z,12.98
2018-06-23T23:06:07.820Z,12.85
2018-06-23T23:08:37.228Z,12.83
2018-06-23T23:11:06.624Z,12.59
2018-06-23T23:13:35.947Z,12.54
2018-06-23T23:16:05.694Z,12.39
2018-06-23T23:18:35.013Z,12.41
2018-06-23T23:21:04.328Z,12.37
2018-06-23T23:23:33.653Z,12.27
2018-06-23T23:26:02.736Z,12.33
2018-06-23T23:28:32.098Z,12.39
2018-06-23T23:31:01.588Z,12.43
2018-06-23T23:33:30.893Z,12.44
2018-06-23T23:36:00.232Z,12.57
2018-06-23T23:38:29.576Z,12.64
2018-06-23T23:40:58.890Z,12.64
2018-06-23T23:43:28.215Z,12.71
2018-06-23T23:45:57.552Z,12.75
2018-06-23T23:48:26.913Z,12.74
2018-06-23T23:50:56.243Z,12.61
2018-06-23T23:53:25.576Z,12.60
2018-06-23T23:55:54.915Z,12.53
2018-06-23T23:58:24.234Z,12.38
